sensor_id;sensor_type;location;lat;lon;timestamp;P1;durP1;ratioP1;P2;durP2;ratioP2
75898;SDS011;64576;50.460;4.866;2023-07-31T00:00:29;10.90;;;3.15;;
75898;SDS011;64576;50.460;4.866;2023-07-31T00:02:55;6.57;;;2.25;;
75898;SDS011;64576;50.460;4.866;2023-07-31T00:05:20;9.80;;;3.75;;
75898;SDS011;64576;50.460;4.866;2023-07-31T00:07:46;7.72;;;2.90;;
75898;SDS011;64576;50.460;4.866;2023-07-31T00:10:11;9.48;;;3.55;;
75898;SDS011;64576;50.460;4.866;2023-07-31T00:12:38;7.93;;;3.03;;
75898;SDS011;64576;50.460;4.866;2023-07-31T00:15:04;8.55;;;3.30;;
75898;SDS011;64576;50.460;4.866;2023-07-31T00:17:30;8.25;;;3.08;;
75898;SDS011;64576;50.460;4.866;2023-07-31T00:19:56;7.25;;;2.60;;
75898;SDS011;64576;50.460;4.866;2023-07-31T00:22:21;10.95;;;4.38;;
75898;SDS011;64576;50.460;4.866;2023-07-31T00:24:46;8.68;;;3.20;;
75898;SDS011;64576;50.460;4.866;2023-07-31T00:27:12;8.07;;;3.08;;
75898;SDS011;64576;50.460;4.866;2023-07-31T00:29:37;10.43;;;3.15;;
75898;SDS011;64576;50.460;4.866;2023-07-31T00:32:03;10.10;;;3.60;;
75898;SDS011;64576;50.460;4.866;2023-07-31T00:34:28;13.10;;;4.88;;
75898;SDS011;64576;50.460;4.866;2023-07-31T00:36:53;7.85;;;2.97;;
75898;SDS011;64576;50.460;4.866;2023-07-31T00:39:19;10.02;;;3.20;;
75898;SDS011;64576;50.460;4.866;2023-07-31T00:41:44;11.68;;;3.92;;
75898;SDS011;64576;50.460;4.866;2023-07-31T00:44:10;9.82;;;3.20;;
75898;SDS011;64576;50.460;4.866;2023-07-31T00:46:35;7.40;;;3.05;;
75898;SDS011;64576;50.460;4.866;2023-07-31T00:49:01;7.55;;;3.38;;
75898;SDS011;64576;50.460;4.866;2023-07-31T00:51:27;7.00;;;2.92;;
75898;SDS011;64576;50.460;4.866;2023-07-31T00:53:52;7.38;;;3.33;;
75898;SDS011;64576;50.460;4.866;2023-07-31T00:56:19;8.50;;;3.58;;
75898;SDS011;64576;50.460;4.866;2023-07-31T00:58:44;9.40;;;3.63;;
75898;SDS011;64576;50.460;4.866;2023-07-31T01:01:10;8.75;;;3.55;;
75898;SDS011;64576;50.460;4.866;2023-07-31T01:03:35;6.43;;;2.70;;
75898;SDS011;64576;50.460;4.866;2023-07-31T01:11:07;6.97;;;3.20;;
75898;SDS011;64576;50.460;4.866;2023-07-31T01:13:40;7.68;;;3.85;;
75898;SDS011;64576;50.460;4.866;2023-07-31T01:16:07;8.82;;;3.58;;
75898;SDS011;64576;50.460;4.866;2023-07-31T01:18:32;9.80;;;3.50;;
75898;SDS011;64576;50.460;4.866;2023-07-31T01:21:02;8.77;;;3.38;;
75898;SDS011;64576;50.460;4.866;2023-07-31T01:26:34;8.15;;;4.00;;
75898;SDS011;64576;50.460;4.866;2023-07-31T01:29:03;7.78;;;2.90;;
75898;SDS011;64576;50.460;4.866;2023-07-31T01:31:35;6.55;;;3.30;;
75898;SDS011;64576;50.460;4.866;2023-07-31T01:34:01;11.02;;;3.40;;
75898;SDS011;64576;50.460;4.866;2023-07-31T01:36:28;9.45;;;3.78;;
75898;SDS011;64576;50.460;4.866;2023-07-31T01:38:58;6.78;;;3.10;;
75898;SDS011;64576;50.460;4.866;2023-07-31T01:41:25;10.25;;;3.97;;
75898;SDS011;64576;50.460;4.866;2023-07-31T01:43:51;7.15;;;3.30;;
75898;SDS011;64576;50.460;4.866;2023-07-31T01:46:16;7.85;;;3.05;;
75898;SDS011;64576;50.460;4.866;2023-07-31T01:48:41;6.13;;;2.78;;
75898;SDS011;64576;50.460;4.866;2023-07-31T01:51:07;9.43;;;2.95;;
75898;SDS011;64576;50.460;4.866;2023-07-31T01:53:32;7.10;;;2.63;;
75898;SDS011;64576;50.460;4.866;2023-07-31T01:55:57;7.10;;;3.00;;
75898;SDS011;64576;50.460;4.866;2023-07-31T01:58:23;6.07;;;2.65;;
75898;SDS011;64576;50.460;4.866;2023-07-31T02:00:48;8.23;;;2.92;;
75898;SDS011;64576;50.460;4.866;2023-07-31T02:03:13;6.32;;;2.50;;
75898;SDS011;64576;50.460;4.866;2023-07-31T02:05:48;5.60;;;3.03;;
75898;SDS011;64576;50.460;4.866;2023-07-31T02:08:14;5.28;;;2.40;;
75898;SDS011;64576;50.460;4.866;2023-07-31T02:10:40;8.43;;;2.92;;
75898;SDS011;64576;50.460;4.866;2023-07-31T02:13:06;7.80;;;3.22;;
75898;SDS011;64576;50.460;4.866;2023-07-31T02:15:31;6.38;;;2.63;;
75898;SDS011;64576;50.460;4.866;2023-07-31T02:17:57;8.50;;;3.33;;
75898;SDS011;64576;50.460;4.866;2023-07-31T02:20:22;7.60;;;2.20;;
75898;SDS011;64576;50.460;4.866;2023-07-31T02:22:48;6.35;;;2.88;;
75898;SDS011;64576;50.460;4.866;2023-07-31T02:25:13;10.13;;;3.70;;
75898;SDS011;64576;50.460;4.866;2023-07-31T02:27:39;6.10;;;2.92;;
75898;SDS011;64576;50.460;4.866;2023-07-31T02:30:04;7.07;;;2.80;;
75898;SDS011;64576;50.460;4.866;2023-07-31T02:32:30;5.50;;;2.47;;
75898;SDS011;64576;50.460;4.866;2023-07-31T02:34:56;6.88;;;2.45;;
75898;SDS011;64576;50.460;4.866;2023-07-31T02:37:21;8.40;;;2.90;;
75898;SDS011;64576;50.460;4.866;2023-07-31T02:39:46;6.03;;;2.65;;
75898;SDS011;64576;50.460;4.866;2023-07-31T02:42:12;8.50;;;3.03;;
75898;SDS011;64576;50.460;4.866;2023-07-31T02:44:38;4.65;;;2.60;;
75898;SDS011;64576;50.460;4.866;2023-07-31T02:47:04;5.30;;;2.47;;
75898;SDS011;64576;50.460;4.866;2023-07-31T02:49:29;5.40;;;2.42;;
75898;SDS011;64576;50.460;4.866;2023-07-31T02:51:55;8.32;;;2.75;;
75898;SDS011;64576;50.460;4.866;2023-07-31T02:54:20;6.57;;;3.25;;
75898;SDS011;64576;50.460;4.866;2023-07-31T02:56:46;6.22;;;2.20;;
75898;SDS011;64576;50.460;4.866;2023-07-31T02:59:12;7.72;;;2.80;;
75898;SDS011;64576;50.460;4.866;2023-07-31T03:01:38;6.85;;;3.20;;
75898;SDS011;64576;50.460;4.866;2023-07-31T03:04:03;6.95;;;2.47;;
75898;SDS011;64576;50.460;4.866;2023-07-31T03:06:29;8.02;;;2.72;;
75898;SDS011;64576;50.460;4.866;2023-07-31T03:08:54;6.63;;;2.63;;
75898;SDS011;64576;50.460;4.866;2023-07-31T03:11:20;7.45;;;2.95;;
75898;SDS011;64576;50.460;4.866;2023-07-31T03:13:45;6.00;;;2.75;;
75898;SDS011;64576;50.460;4.866;2023-07-31T03:16:10;7.10;;;2.40;;
75898;SDS011;64576;50.460;4.866;2023-07-31T03:18:36;6.38;;;2.72;;
75898;SDS011;64576;50.460;4.866;2023-07-31T03:21:01;13.15;;;3.30;;
75898;SDS011;64576;50.460;4.866;2023-07-31T03:23:26;6.85;;;3.28;;
75898;SDS011;64576;50.460;4.866;2023-07-31T03:25:59;10.32;;;3.08;;
75898;SDS011;64576;50.460;4.866;2023-07-31T03:28:25;12.52;;;5.88;;
75898;SDS011;64576;50.460;4.866;2023-07-31T03:30:51;8.20;;;2.55;;
75898;SDS011;64576;50.460;4.866;2023-07-31T03:33:17;8.65;;;2.20;;
75898;SDS011;64576;50.460;4.866;2023-07-31T03:35:43;8.73;;;2.72;;
75898;SDS011;64576;50.460;4.866;2023-07-31T03:38:08;6.88;;;3.03;;
75898;SDS011;64576;50.460;4.866;2023-07-31T03:40:33;5.32;;;2.25;;
75898;SDS011;64576;50.460;4.866;2023-07-31T03:42:59;5.72;;;2.35;;
75898;SDS011;64576;50.460;4.866;2023-07-31T03:45:24;10.93;;;2.72;;
75898;SDS011;64576;50.460;4.866;2023-07-31T03:47:50;9.13;;;2.85;;
75898;SDS011;64576;50.460;4.866;2023-07-31T03:50:15;11.52;;;2.92;;
75898;SDS011;64576;50.460;4.866;2023-07-31T03:52:41;5.47;;;2.47;;
75898;SDS011;64576;50.460;4.866;2023-07-31T03:55:06;9.52;;;2.83;;
75898;SDS011;64576;50.460;4.866;2023-07-31T03:57:32;7.50;;;3.28;;
75898;SDS011;64576;50.460;4.866;2023-07-31T03:59:57;7.53;;;2.72;;
75898;SDS011;64576;50.460;4.866;2023-07-31T04:02:23;10.13;;;3.35;;
75898;SDS011;64576;50.460;4.866;2023-07-31T04:04:48;6.03;;;2.78;;
75898;SDS011;64576;50.460;4.866;2023-07-31T04:07:14;6.22;;;2.60;;
75898;SDS011;64576;50.460;4.866;2023-07-31T04:09:39;5.38;;;2.33;;
75898;SDS011;64576;50.460;4.866;2023-07-31T04:12:04;6.47;;;2.63;;
75898;SDS011;64576;50.460;4.866;2023-07-31T04:14:30;9.45;;;2.67;;
75898;SDS011;64576;50.460;4.866;2023-07-31T04:16:55;6.78;;;2.45;;
75898;SDS011;64576;50.460;4.866;2023-07-31T04:19:21;5.65;;;2.10;;
75898;SDS011;64576;50.460;4.866;2023-07-31T04:21:46;5.88;;;2.45;;
75898;SDS011;64576;50.460;4.866;2023-07-31T04:24:11;7.88;;;2.45;;
75898;SDS011;64576;50.460;4.866;2023-07-31T04:26:37;6.05;;;2.58;;
75898;SDS011;64576;50.460;4.866;2023-07-31T04:29:02;11.73;;;3.28;;
75898;SDS011;64576;50.460;4.866;2023-07-31T04:31:28;10.18;;;3.20;;
75898;SDS011;64576;50.460;4.866;2023-07-31T04:33:53;9.45;;;3.28;;
75898;SDS011;64576;50.460;4.866;2023-07-31T04:36:18;7.88;;;2.75;;
75898;SDS011;64576;50.460;4.866;2023-07-31T04:38:44;5.43;;;2.72;;
75898;SDS011;64576;50.460;4.866;2023-07-31T04:41:09;7.57;;;2.67;;
75898;SDS011;64576;50.460;4.866;2023-07-31T04:43:34;7.40;;;2.72;;
75898;SDS011;64576;50.460;4.866;2023-07-31T04:46:00;5.85;;;3.35;;
75898;SDS011;64576;50.460;4.866;2023-07-31T04:48:25;7.93;;;2.30;;
75898;SDS011;64576;50.460;4.866;2023-07-31T04:50:50;6.45;;;2.53;;
75898;SDS011;64576;50.460;4.866;2023-07-31T04:53:16;8.02;;;2.55;;
75898;SDS011;64576;50.460;4.866;2023-07-31T04:55:41;6.78;;;2.17;;
75898;SDS011;64576;50.460;4.866;2023-07-31T04:58:06;7.50;;;2.72;;
75898;SDS011;64576;50.460;4.866;2023-07-31T05:00:33;9.50;;;2.70;;
75898;SDS011;64576;50.460;4.866;2023-07-31T05:02:58;7.47;;;3.35;;
75898;SDS011;64576;50.460;4.866;2023-07-31T05:05:23;6.13;;;2.40;;
75898;SDS011;64576;50.460;4.866;2023-07-31T05:07:49;5.82;;;2.58;;
75898;SDS011;64576;50.460;4.866;2023-07-31T05:10:14;8.25;;;2.50;;
75898;SDS011;64576;50.460;4.866;2023-07-31T05:12:40;7.07;;;2.30;;
75898;SDS011;64576;50.460;4.866;2023-07-31T05:15:05;9.73;;;3.58;;
75898;SDS011;64576;50.460;4.866;2023-07-31T05:17:31;5.32;;;2.50;;
75898;SDS011;64576;50.460;4.866;2023-07-31T05:19:56;7.57;;;2.10;;
75898;SDS011;64576;50.460;4.866;2023-07-31T05:22:22;4.63;;;2.03;;
75898;SDS011;64576;50.460;4.866;2023-07-31T05:24:47;5.13;;;2.33;;
75898;SDS011;64576;50.460;4.866;2023-07-31T05:27:13;6.10;;;2.63;;
75898;SDS011;64576;50.460;4.866;2023-07-31T05:29:40;6.32;;;1.67;;
75898;SDS011;64576;50.460;4.866;2023-07-31T05:32:06;5.55;;;2.22;;
75898;SDS011;64576;50.460;4.866;2023-07-31T05:34:31;7.10;;;2.22;;
75898;SDS011;64576;50.460;4.866;2023-07-31T05:36:57;7.10;;;2.17;;
75898;SDS011;64576;50.460;4.866;2023-07-31T05:39:22;6.70;;;2.47;;
75898;SDS011;64576;50.460;4.866;2023-07-31T05:41:47;6.82;;;2.00;;
75898;SDS011;64576;50.460;4.866;2023-07-31T05:44:13;7.70;;;3.22;;
75898;SDS011;64576;50.460;4.866;2023-07-31T05:46:38;7.13;;;2.22;;
75898;SDS011;64576;50.460;4.866;2023-07-31T05:49:04;6.50;;;2.58;;
75898;SDS011;64576;50.460;4.866;2023-07-31T05:51:29;4.93;;;1.77;;
75898;SDS011;64576;50.460;4.866;2023-07-31T05:53:54;7.22;;;2.15;;
75898;SDS011;64576;50.460;4.866;2023-07-31T05:56:20;6.07;;;2.35;;
75898;SDS011;64576;50.460;4.866;2023-07-31T05:58:45;8.48;;;2.50;;
75898;SDS011;64576;50.460;4.866;2023-07-31T06:01:10;8.48;;;3.08;;
75898;SDS011;64576;50.460;4.866;2023-07-31T06:03:36;8.35;;;2.17;;
75898;SDS011;64576;50.460;4.866;2023-07-31T06:06:01;4.90;;;2.10;;
75898;SDS011;64576;50.460;4.866;2023-07-31T06:08:27;7.10;;;1.95;;
75898;SDS011;64576;50.460;4.866;2023-07-31T06:10:52;8.52;;;2.78;;
75898;SDS011;64576;50.460;4.866;2023-07-31T06:13:18;5.45;;;2.28;;
75898;SDS011;64576;50.460;4.866;2023-07-31T06:15:43;6.03;;;2.65;;
75898;SDS011;64576;50.460;4.866;2023-07-31T06:18:08;5.85;;;2.50;;
75898;SDS011;64576;50.460;4.866;2023-07-31T06:20:34;5.70;;;2.55;;
75898;SDS011;64576;50.460;4.866;2023-07-31T06:22:59;6.22;;;2.40;;
75898;SDS011;64576;50.460;4.866;2023-07-31T06:25:25;8.88;;;3.10;;
75898;SDS011;64576;50.460;4.866;2023-07-31T06:27:50;4.72;;;2.50;;
75898;SDS011;64576;50.460;4.866;2023-07-31T06:30:16;7.40;;;2.45;;
75898;SDS011;64576;50.460;4.866;2023-07-31T06:32:41;6.38;;;2.55;;
75898;SDS011;64576;50.460;4.866;2023-07-31T06:35:07;4.43;;;2.03;;
75898;SDS011;64576;50.460;4.866;2023-07-31T06:37:33;4.78;;;2.70;;
75898;SDS011;64576;50.460;4.866;2023-07-31T06:39:58;5.72;;;2.60;;
75898;SDS011;64576;50.460;4.866;2023-07-31T06:42:24;10.85;;;3.50;;
75898;SDS011;64576;50.460;4.866;2023-07-31T06:44:49;6.38;;;2.63;;
75898;SDS011;64576;50.460;4.866;2023-07-31T06:47:15;6.05;;;3.15;;
75898;SDS011;64576;50.460;4.866;2023-07-31T06:49:40;7.38;;;3.00;;
75898;SDS011;64576;50.460;4.866;2023-07-31T06:52:06;6.55;;;2.53;;
75898;SDS011;64576;50.460;4.866;2023-07-31T06:54:31;8.93;;;3.28;;
75898;SDS011;64576;50.460;4.866;2023-07-31T06:56:57;9.10;;;3.40;;
75898;SDS011;64576;50.460;4.866;2023-07-31T06:59:22;7.93;;;2.72;;
75898;SDS011;64576;50.460;4.866;2023-07-31T07:01:49;7.05;;;2.47;;
75898;SDS011;64576;50.460;4.866;2023-07-31T07:04:14;5.72;;;2.65;;
75898;SDS011;64576;50.460;4.866;2023-07-31T07:06:40;11.55;;;3.10;;
75898;SDS011;64576;50.460;4.866;2023-07-31T07:09:05;5.18;;;2.60;;
75898;SDS011;64576;50.460;4.866;2023-07-31T07:11:31;7.30;;;2.53;;
75898;SDS011;64576;50.460;4.866;2023-07-31T07:13:57;6.35;;;3.05;;
75898;SDS011;64576;50.460;4.866;2023-07-31T07:16:22;6.18;;;2.28;;
75898;SDS011;64576;50.460;4.866;2023-07-31T07:18:48;5.32;;;2.33;;
75898;SDS011;64576;50.460;4.866;2023-07-31T07:21:13;7.65;;;2.38;;
75898;SDS011;64576;50.460;4.866;2023-07-31T07:23:41;4.32;;;1.85;;
75898;SDS011;64576;50.460;4.866;2023-07-31T07:26:07;6.53;;;2.63;;
75898;SDS011;64576;50.460;4.866;2023-07-31T07:28:32;6.05;;;2.20;;
75898;SDS011;64576;50.460;4.866;2023-07-31T07:30:58;5.35;;;2.30;;
75898;SDS011;64576;50.460;4.866;2023-07-31T07:33:23;7.47;;;2.33;;
75898;SDS011;64576;50.460;4.866;2023-07-31T07:35:49;6.30;;;2.47;;
75898;SDS011;64576;50.460;4.866;2023-07-31T07:38:14;5.78;;;2.28;;
75898;SDS011;64576;50.460;4.866;2023-07-31T07:40:44;6.45;;;2.17;;
75898;SDS011;64576;50.460;4.866;2023-07-31T07:43:11;5.65;;;2.22;;
75898;SDS011;64576;50.460;4.866;2023-07-31T07:45:37;5.28;;;1.90;;
75898;SDS011;64576;50.460;4.866;2023-07-31T07:48:02;5.47;;;1.80;;
75898;SDS011;64576;50.460;4.866;2023-07-31T07:50:28;8.88;;;2.60;;
75898;SDS011;64576;50.460;4.866;2023-07-31T07:52:53;4.47;;;1.90;;
75898;SDS011;64576;50.460;4.866;2023-07-31T07:55:19;4.72;;;2.42;;
75898;SDS011;64576;50.460;4.866;2023-07-31T07:57:44;4.18;;;1.60;;
75898;SDS011;64576;50.460;4.866;2023-07-31T08:00:10;9.10;;;2.83;;
75898;SDS011;64576;50.460;4.866;2023-07-31T08:02:36;5.75;;;2.20;;
75898;SDS011;64576;50.460;4.866;2023-07-31T08:05:02;5.80;;;2.20;;
75898;SDS011;64576;50.460;4.866;2023-07-31T08:07:28;4.93;;;2.15;;
75898;SDS011;64576;50.460;4.866;2023-07-31T08:09:53;6.20;;;2.75;;
75898;SDS011;64576;50.460;4.866;2023-07-31T08:12:19;4.75;;;1.88;;
75898;SDS011;64576;50.460;4.866;2023-07-31T08:14:44;7.00;;;2.30;;
75898;SDS011;64576;50.460;4.866;2023-07-31T08:17:09;6.20;;;1.92;;
75898;SDS011;64576;50.460;4.866;2023-07-31T08:19:35;5.20;;;2.10;;
75898;SDS011;64576;50.460;4.866;2023-07-31T08:22:00;7.03;;;2.05;;
75898;SDS011;64576;50.460;4.866;2023-07-31T08:24:26;6.80;;;2.47;;
75898;SDS011;64576;50.460;4.866;2023-07-31T08:26:51;5.00;;;2.58;;
75898;SDS011;64576;50.460;4.866;2023-07-31T08:29:16;6.95;;;2.40;;
75898;SDS011;64576;50.460;4.866;2023-07-31T08:31:42;5.28;;;2.40;;
75898;SDS011;64576;50.460;4.866;2023-07-31T08:34:08;5.63;;;2.38;;
75898;SDS011;64576;50.460;4.866;2023-07-31T08:36:34;5.57;;;1.88;;
75898;SDS011;64576;50.460;4.866;2023-07-31T08:39:00;5.10;;;2.20;;
75898;SDS011;64576;50.460;4.866;2023-07-31T08:41:25;5.00;;;1.90;;
75898;SDS011;64576;50.460;4.866;2023-07-31T08:43:50;4.50;;;2.08;;
75898;SDS011;64576;50.460;4.866;2023-07-31T08:46:17;3.40;;;1.30;;
75898;SDS011;64576;50.460;4.866;2023-07-31T08:48:43;4.63;;;2.17;;
75898;SDS011;64576;50.460;4.866;2023-07-31T08:51:10;6.82;;;1.65;;
75898;SDS011;64576;50.460;4.866;2023-07-31T08:53:36;4.43;;;1.52;;
75898;SDS011;64576;50.460;4.866;2023-07-31T08:56:02;5.00;;;1.67;;
75898;SDS011;64576;50.460;4.866;2023-07-31T08:58:31;3.15;;;1.45;;
75898;SDS011;64576;50.460;4.866;2023-07-31T09:00:57;4.25;;;1.70;;
75898;SDS011;64576;50.460;4.866;2023-07-31T09:03:25;3.88;;;1.50;;
75898;SDS011;64576;50.460;4.866;2023-07-31T09:05:51;4.07;;;1.48;;
75898;SDS011;64576;50.460;4.866;2023-07-31T09:08:19;4.43;;;1.58;;
75898;SDS011;64576;50.460;4.866;2023-07-31T09:10:46;3.40;;;1.27;;
75898;SDS011;64576;50.460;4.866;2023-07-31T09:13:12;4.20;;;1.63;;
75898;SDS011;64576;50.460;4.866;2023-07-31T09:15:38;3.78;;;1.58;;
75898;SDS011;64576;50.460;4.866;2023-07-31T09:18:05;4.63;;;1.35;;
75898;SDS011;64576;50.460;4.866;2023-07-31T09:20:31;4.28;;;1.67;;
75898;SDS011;64576;50.460;4.866;2023-07-31T09:23:04;3.78;;;1.50;;
75898;SDS011;64576;50.460;4.866;2023-07-31T09:25:32;3.30;;;1.40;;
75898;SDS011;64576;50.460;4.866;2023-07-31T09:27:58;4.47;;;1.70;;
75898;SDS011;64576;50.460;4.866;2023-07-31T09:30:25;3.55;;;1.63;;
75898;SDS011;64576;50.460;4.866;2023-07-31T09:32:51;7.00;;;2.53;;
75898;SDS011;64576;50.460;4.866;2023-07-31T09:37:58;7.50;;;2.42;;
75898;SDS011;64576;50.460;4.866;2023-07-31T09:40:35;6.15;;;2.60;;
75898;SDS011;64576;50.460;4.866;2023-07-31T09:43:03;4.68;;;1.90;;
75898;SDS011;64576;50.460;4.866;2023-07-31T09:45:34;8.98;;;2.85;;
75898;SDS011;64576;50.460;4.866;2023-07-31T09:48:01;4.78;;;2.55;;
75898;SDS011;64576;50.460;4.866;2023-07-31T09:50:28;6.55;;;2.60;;
75898;SDS011;64576;50.460;4.866;2023-07-31T09:52:55;7.18;;;2.88;;
75898;SDS011;64576;50.460;4.866;2023-07-31T09:55:21;5.28;;;2.17;;
75898;SDS011;64576;50.460;4.866;2023-07-31T09:57:48;7.00;;;2.25;;
75898;SDS011;64576;50.460;4.866;2023-07-31T10:00:23;8.60;;;2.47;;
75898;SDS011;64576;50.460;4.866;2023-07-31T10:02:53;7.93;;;2.15;;
75898;SDS011;64576;50.460;4.866;2023-07-31T10:05:21;9.02;;;2.83;;
75898;SDS011;64576;50.460;4.866;2023-07-31T10:07:51;9.50;;;2.50;;
75898;SDS011;64576;50.460;4.866;2023-07-31T10:12:45;7.32;;;2.63;;
75898;SDS011;64576;50.460;4.866;2023-07-31T10:15:14;8.35;;;2.92;;
75898;SDS011;64576;50.460;4.866;2023-07-31T10:17:40;5.10;;;2.28;;
75898;SDS011;64576;50.460;4.866;2023-07-31T10:20:06;6.22;;;3.00;;
75898;SDS011;64576;50.460;4.866;2023-07-31T10:22:34;7.03;;;2.42;;
75898;SDS011;64576;50.460;4.866;2023-07-31T10:24:59;7.20;;;3.05;;
75898;SDS011;64576;50.460;4.866;2023-07-31T10:27:25;10.30;;;3.15;;
75898;SDS011;64576;50.460;4.866;2023-07-31T10:29:54;7.13;;;3.47;;
75898;SDS011;64576;50.460;4.866;2023-07-31T10:32:21;7.45;;;3.28;;
75898;SDS011;64576;50.460;4.866;2023-07-31T10:34:47;9.68;;;2.78;;
75898;SDS011;64576;50.460;4.866;2023-07-31T10:40:16;6.97;;;2.42;;
75898;SDS011;64576;50.460;4.866;2023-07-31T10:42:49;7.60;;;2.50;;
75898;SDS011;64576;50.460;4.866;2023-07-31T10:45:39;6.32;;;2.75;;
75898;SDS011;64576;50.460;4.866;2023-07-31T10:48:07;6.47;;;3.25;;
75898;SDS011;64576;50.460;4.866;2023-07-31T10:50:48;9.48;;;3.30;;
75898;SDS011;64576;50.460;4.866;2023-07-31T10:53:25;6.72;;;2.83;;
75898;SDS011;64576;50.460;4.866;2023-07-31T10:56:03;7.50;;;3.15;;
75898;SDS011;64576;50.460;4.866;2023-07-31T10:58:33;13.48;;;4.28;;
75898;SDS011;64576;50.460;4.866;2023-07-31T11:01:00;6.53;;;2.90;;
75898;SDS011;64576;50.460;4.866;2023-07-31T11:06:14;8.77;;;3.13;;
75898;SDS011;64576;50.460;4.866;2023-07-31T11:08:45;9.40;;;3.72;;
75898;SDS011;64576;50.460;4.866;2023-07-31T11:11:13;6.03;;;2.97;;
75898;SDS011;64576;50.460;4.866;2023-07-31T11:16:07;8.23;;;3.83;;
75898;SDS011;64576;50.460;4.866;2023-07-31T11:18:35;8.13;;;3.47;;
75898;SDS011;64576;50.460;4.866;2023-07-31T11:21:02;8.90;;;3.35;;
75898;SDS011;64576;50.460;4.866;2023-07-31T11:23:28;9.20;;;4.38;;
75898;SDS011;64576;50.460;4.866;2023-07-31T11:25:59;7.93;;;3.60;;
75898;SDS011;64576;50.460;4.866;2023-07-31T11:28:26;7.22;;;3.33;;
75898;SDS011;64576;50.460;4.866;2023-07-31T11:30:57;8.15;;;3.58;;
75898;SDS011;64576;50.460;4.866;2023-07-31T11:33:24;8.07;;;2.85;;
75898;SDS011;64576;50.460;4.866;2023-07-31T11:35:51;9.95;;;4.03;;
75898;SDS011;64576;50.460;4.866;2023-07-31T11:38:22;8.35;;;3.63;;
75898;SDS011;64576;50.460;4.866;2023-07-31T11:40:56;9.05;;;4.20;;
75898;SDS011;64576;50.460;4.866;2023-07-31T11:43:23;10.13;;;3.75;;
75898;SDS011;64576;50.460;4.866;2023-07-31T11:45:52;8.52;;;4.35;;
75898;SDS011;64576;50.460;4.866;2023-07-31T11:48:20;11.20;;;4.80;;
75898;SDS011;64576;50.460;4.866;2023-07-31T11:51:09;10.07;;;4.32;;
75898;SDS011;64576;50.460;4.866;2023-07-31T11:53:42;7.68;;;4.13;;
75898;SDS011;64576;50.460;4.866;2023-07-31T11:56:10;8.20;;;3.80;;
75898;SDS011;64576;50.460;4.866;2023-07-31T11:58:41;6.77;;;3.47;;
75898;SDS011;64576;50.460;4.866;2023-07-31T12:01:10;8.27;;;4.25;;
75898;SDS011;64576;50.460;4.866;2023-07-31T12:03:37;7.05;;;3.65;;
75898;SDS011;64576;50.460;4.866;2023-07-31T12:06:17;7.75;;;3.28;;
75898;SDS011;64576;50.460;4.866;2023-07-31T12:09:06;7.05;;;4.45;;
75898;SDS011;64576;50.460;4.866;2023-07-31T12:11:46;10.15;;;3.35;;
75898;SDS011;64576;50.460;4.866;2023-07-31T12:14:21;11.57;;;4.18;;
75898;SDS011;64576;50.460;4.866;2023-07-31T12:16:54;8.32;;;3.38;;
75898;SDS011;64576;50.460;4.866;2023-07-31T12:19:24;7.82;;;3.20;;
75898;SDS011;64576;50.460;4.866;2023-07-31T12:21:58;7.40;;;3.17;;
75898;SDS011;64576;50.460;4.866;2023-07-31T12:24:27;7.72;;;3.00;;
75898;SDS011;64576;50.460;4.866;2023-07-31T12:26:55;7.05;;;3.35;;
75898;SDS011;64576;50.460;4.866;2023-07-31T12:29:33;6.20;;;2.75;;
75898;SDS011;64576;50.460;4.866;2023-07-31T12:32:24;9.15;;;3.42;;
75898;SDS011;64576;50.460;4.866;2023-07-31T12:35:00;6.60;;;3.50;;
75898;SDS011;64576;50.460;4.866;2023-07-31T12:37:40;7.00;;;3.23;;
75898;SDS011;64576;50.460;4.866;2023-07-31T12:40:11;7.00;;;3.17;;
75898;SDS011;64576;50.460;4.866;2023-07-31T12:42:40;8.32;;;4.03;;
75898;SDS011;64576;50.460;4.866;2023-07-31T12:45:12;7.88;;;3.75;;
75898;SDS011;64576;50.460;4.866;2023-07-31T12:47:40;7.97;;;4.28;;
75898;SDS011;64576;50.460;4.866;2023-07-31T12:50:07;7.53;;;3.35;;
75898;SDS011;64576;50.460;4.866;2023-07-31T12:52:34;7.40;;;3.28;;
75898;SDS011;64576;50.460;4.866;2023-07-31T12:55:01;8.98;;;3.53;;
75898;SDS011;64576;50.460;4.866;2023-07-31T12:57:31;7.13;;;3.30;;
75898;SDS011;64576;50.460;4.866;2023-07-31T12:59:59;10.40;;;3.30;;
75898;SDS011;64576;50.460;4.866;2023-07-31T13:02:30;6.97;;;3.65;;
75898;SDS011;64576;50.460;4.866;2023-07-31T13:05:01;11.00;;;4.50;;
75898;SDS011;64576;50.460;4.866;2023-07-31T13:07:29;9.13;;;3.95;;
75898;SDS011;64576;50.460;4.866;2023-07-31T13:09:56;11.30;;;4.10;;
75898;SDS011;64576;50.460;4.866;2023-07-31T13:12:23;10.48;;;5.13;;
75898;SDS011;64576;50.460;4.866;2023-07-31T13:14:49;10.68;;;4.63;;
75898;SDS011;64576;50.460;4.866;2023-07-31T13:17:17;12.25;;;4.95;;
75898;SDS011;64576;50.460;4.866;2023-07-31T13:19:44;11.02;;;4.18;;
75898;SDS011;64576;50.460;4.866;2023-07-31T13:22:10;9.05;;;3.67;;
75898;SDS011;64576;50.460;4.866;2023-07-31T13:24:42;7.95;;;3.90;;
75898;SDS011;64576;50.460;4.866;2023-07-31T13:27:08;8.80;;;3.40;;
75898;SDS011;64576;50.460;4.866;2023-07-31T13:29:34;7.68;;;3.58;;
75898;SDS011;64576;50.460;4.866;2023-07-31T13:31:59;8.70;;;3.33;;
75898;SDS011;64576;50.460;4.866;2023-07-31T13:34:26;8.73;;;3.42;;
75898;SDS011;64576;50.460;4.866;2023-07-31T13:36:53;5.45;;;2.67;;
75898;SDS011;64576;50.460;4.866;2023-07-31T13:39:24;7.07;;;2.63;;
75898;SDS011;64576;50.460;4.866;2023-07-31T13:41:50;6.07;;;2.50;;
75898;SDS011;64576;50.460;4.866;2023-07-31T13:44:21;5.70;;;2.10;;
75898;SDS011;64576;50.460;4.866;2023-07-31T13:46:46;7.60;;;2.97;;
75898;SDS011;64576;50.460;4.866;2023-07-31T13:49:12;9.48;;;3.15;;
75898;SDS011;64576;50.460;4.866;2023-07-31T13:51:39;8.60;;;2.40;;
75898;SDS011;64576;50.460;4.866;2023-07-31T13:54:05;5.20;;;2.45;;
75898;SDS011;64576;50.460;4.866;2023-07-31T13:56:32;5.90;;;2.22;;
75898;SDS011;64576;50.460;4.866;2023-07-31T13:58:57;7.85;;;2.60;;
75898;SDS011;64576;50.460;4.866;2023-07-31T14:01:23;8.40;;;3.30;;
75898;SDS011;64576;50.460;4.866;2023-07-31T14:03:49;6.28;;;2.30;;
75898;SDS011;64576;50.460;4.866;2023-07-31T14:06:14;6.75;;;2.25;;
75898;SDS011;64576;50.460;4.866;2023-07-31T14:08:40;5.25;;;1.92;;
75898;SDS011;64576;50.460;4.866;2023-07-31T14:11:10;6.32;;;2.17;;
75898;SDS011;64576;50.460;4.866;2023-07-31T14:13:42;7.82;;;2.90;;
75898;SDS011;64576;50.460;4.866;2023-07-31T14:16:40;5.82;;;2.33;;
75898;SDS011;64576;50.460;4.866;2023-07-31T14:19:17;5.47;;;2.53;;
75898;SDS011;64576;50.460;4.866;2023-07-31T14:21:53;8.38;;;2.88;;
75898;SDS011;64576;50.460;4.866;2023-07-31T14:24:34;9.05;;;3.25;;
75898;SDS011;64576;50.460;4.866;2023-07-31T14:27:21;7.55;;;3.25;;
75898;SDS011;64576;50.460;4.866;2023-07-31T14:29:54;15.23;;;3.03;;
75898;SDS011;64576;50.460;4.866;2023-07-31T14:32:27;5.93;;;2.63;;
75898;SDS011;64576;50.460;4.866;2023-07-31T14:34:53;8.25;;;2.72;;
75898;SDS011;64576;50.460;4.866;2023-07-31T14:37:21;7.35;;;3.05;;
75898;SDS011;64576;50.460;4.866;2023-07-31T14:39:50;6.78;;;2.92;;
75898;SDS011;64576;50.460;4.866;2023-07-31T14:42:20;6.75;;;2.75;;
75898;SDS011;64576;50.460;4.866;2023-07-31T14:44:53;5.72;;;2.90;;
75898;SDS011;64576;50.460;4.866;2023-07-31T14:47:22;5.72;;;2.20;;
75898;SDS011;64576;50.460;4.866;2023-07-31T14:49:48;7.10;;;2.67;;
75898;SDS011;64576;50.460;4.866;2023-07-31T14:52:16;5.22;;;2.42;;
75898;SDS011;64576;50.460;4.866;2023-07-31T14:54:44;11.00;;;2.50;;
75898;SDS011;64576;50.460;4.866;2023-07-31T14:57:11;7.35;;;2.58;;
75898;SDS011;64576;50.460;4.866;2023-07-31T14:59:40;6.00;;;2.80;;
75898;SDS011;64576;50.460;4.866;2023-07-31T15:02:06;6.00;;;3.25;;
75898;SDS011;64576;50.460;4.866;2023-07-31T15:04:34;6.63;;;2.47;;
75898;SDS011;64576;50.460;4.866;2023-07-31T15:07:08;4.55;;;2.30;;